Time;durP1;ratioP1;P1;durP2;ratioP2;P2;SDS_P1;SDS_P2;PMS_P1;PMS_P2;Temp;Humidity;BMP_temperature;BMP_pressure;BME280_temperature;BME280_humidity;BME280_pressure;Samples;Min_cycle;Max_cycle;Signal;HPM_P1;HPM_P2
2022/07/01 00:00:33;;;;;;;0.00;0.00;;;24.20;99.90;;;;;;5080554;28;20196;-70
2022/07/01 00:03:00;;;;;;;0.00;0.00;;;24.20;99.90;;;;;;5079778;28;20853;-70
2022/07/01 00:05:27;;;;;;;0.00;0.00;;;24.20;99.90;;;;;;5079570;28;20284;-70
2022/07/01 00:07:56;;;;;;;0.00;0.00;;;24.30;99.90;;;;;;5076887;28;20337;-70
2022/07/01 00:10:22;;;;;;;0.00;0.00;;;24.30;99.90;;;;;;5078215;28;20209;-70
2022/07/01 00:12:49;;;;;;;0.00;0.00;;;24.30;99.90;;;;;;5078824;28;20221;-69
2022/07/01 00:15:16;;;;;;;0.00;0.00;;;24.30;99.90;;;;;;5079892;28;20221;-69
2022/07/01 00:17:44;;;;;;;0.00;0.00;;;24.30;99.90;;;;;;5110920;27;21213;-69
2022/07/01 00:20:12;;;;;;;0.00;0.00;;;24.30;99.90;;;;;;5080041;28;20208;-69
2022/07/01 00:22:39;;;;;;;0.00;0.00;;;24.30;99.90;;;;;;5087095;28;20309;-71
2022/07/01 00:25:09;;;;;;;0.00;0.00;;;24.30;99.90;;;;;;5079115;28;20224;-71
2022/07/01 00:27:38;;;;;;;0.00;0.00;;;24.30;99.90;;;;;;5078875;28;20205;-71
2022/07/01 00:30:06;;;;;;;0.00;0.00;;;24.20;99.90;;;;;;5076162;28;20202;-70
2022/07/01 00:32:33;;;;;;;0.00;0.00;;;24.20;99.90;;;;;;5077334;28;20285;-71
2022/07/01 00:34:59;;;;;;;0.00;0.00;;;24.10;99.90;;;;;;5079521;28;20194;-70
2022/07/01 00:37:27;;;;;;;0.00;0.00;;;24.10;99.90;;;;;;5079775;28;20230;-71
2022/07/01 00:39:54;;;;;;;0.00;0.00;;;24.00;99.90;;;;;;5077976;28;20327;-70
2022/07/01 00:42:22;;;;;;;0.00;0.00;;;24.00;99.90;;;;;;5079648;28;20209;-70
2022/07/01 00:44:49;;;;;;;0.00;0.00;;;24.00;99.90;;;;;;5077671;28;20224;-70
2022/07/01 00:47:16;;;;;;;0.00;0.00;;;23.90;99.90;;;;;;5079460;28;20209;-70
2022/07/01 00:49:44;;;;;;;0.00;0.00;;;23.90;99.90;;;;;;5078501;28;20228;-69
2022/07/01 00:52:11;;;;;;;0.00;0.00;;;23.90;99.90;;;;;;5080334;28;20201;-69
2022/07/01 00:54:39;;;;;;;0.00;0.00;;;23.80;99.90;;;;;;5078943;28;20217;-72
2022/07/01 00:57:08;;;;;;;0.00;0.00;;;23.80;99.90;;;;;;5077771;28;20221;-70
2022/07/01 00:59:37;;;;;;;0.00;0.00;;;23.80;99.90;;;;;;5076802;28;20194;-69
2022/07/01 01:02:05;;;;;;;0.00;0.00;;;23.80;99.90;;;;;;5077861;28;20285;-71
2022/07/01 01:04:32;;;;;;;0.00;0.00;;;23.70;99.90;;;;;;5078767;28;20222;-71
2022/07/01 01:07:01;;;;;;;0.00;0.00;;;23.70;99.90;;;;;;5077637;28;20205;-70
2022/07/01 01:09:28;;;;;;;0.00;0.00;;;23.70;99.90;;;;;;5078548;28;20217;-71
2022/07/01 01:11:57;;;;;;;0.00;0.00;;;23.60;99.90;;;;;;5077542;28;20217;-71
2022/07/01 01:14:25;;;;;;;0.00;0.00;;;23.50;99.90;;;;;;5077333;28;20253;-71
2022/07/01 01:16:53;;;;;;;0.00;0.00;;;23.40;99.90;;;;;;5110646;27;20796;-71
2022/07/01 01:19:20;;;;;;;0.00;0.00;;;23.40;99.90;;;;;;5076917;28;20465;-71
2022/07/01 01:21:48;;;;;;;0.00;0.00;;;23.40;99.90;;;;;;5109653;27;20197;-70
2022/07/01 01:24:15;;;;;;;0.00;0.00;;;23.40;99.90;;;;;;5075561;28;20225;-70
2022/07/01 01:26:42;;;;;;;0.00;0.00;;;23.40;99.90;;;;;;5076545;28;20749;-70
2022/07/01 01:29:09;;;;;;;0.00;0.00;;;23.40;99.90;;;;;;5076479;28;20225;-70
2022/07/01 01:31:36;;;;;;;0.00;0.00;;;23.40;99.90;;;;;;5077998;28;20221;-70
2022/07/01 01:34:03;;;;;;;0.00;0.00;;;23.40;99.90;;;;;;5111133;27;20272;-69
2022/07/01 01:36:31;;;;;;;0.00;0.00;;;23.50;99.90;;;;;;5076606;28;20194;-71
2022/07/01 01:39:04;;;;;;;0.00;0.00;;;23.50;99.90;;;;;;5077359;28;20709;-71
2022/07/01 01:41:31;;;;;;;0.00;0.00;;;23.50;99.90;;;;;;5076069;28;20283;-71
2022/07/01 01:43:58;;;;;;;0.00;0.00;;;23.60;99.90;;;;;;5076963;28;20232;-70
2022/07/01 01:46:25;;;;;;;0.00;0.00;;;23.60;99.90;;;;;;5068592;28;20742;-69
2022/07/01 01:48:53;;;;;;;0.00;0.00;;;23.60;99.90;;;;;;5077298;28;20225;-71
2022/07/01 01:51:20;;;;;;;0.00;0.00;;;23.70;99.90;;;;;;5078598;28;20312;-70
2022/07/01 01:53:47;;;;;;;0.00;0.00;;;23.70;99.90;;;;;;5077119;28;20342;-71
2022/07/01 01:56:15;;;;;;;0.00;0.00;;;23.70;99.90;;;;;;5076201;28;20943;-70
2022/07/01 01:58:43;;;;;;;0.00;0.00;;;23.70;99.90;;;;;;5076449;28;20226;-71
2022/07/01 02:01:11;;;;;;;0.00;0.00;;;23.60;99.90;;;;;;5094016;28;20226;-70
2022/07/01 02:03:38;;;;;;;0.00;0.00;;;23.50;99.90;;;;;;5076367;28;20625;-71
2022/07/01 02:06:06;;;;;;;0.00;0.00;;;23.50;99.90;;;;;;5076508;28;20205;-70
2022/07/01 02:08:33;;;;;;;0.00;0.00;;;23.30;99.90;;;;;;5078261;28;20213;-71
2022/07/01 02:11:00;;;;;;;0.00;0.00;;;23.30;99.90;;;;;;5078238;28;20314;-70
2022/07/01 02:13:28;;;;;;;0.00;0.00;;;23.20;99.90;;;;;;5075369;28;20241;-70
2022/07/01 02:15:56;;;;;;;0.00;0.00;;;23.10;99.90;;;;;;5078457;28;20445;-71
2022/07/01 02:18:23;;;;;;;0.00;0.00;;;22.90;99.90;;;;;;5076940;28;20189;-70
2022/07/01 02:20:51;;;;;;;0.00;0.00;;;22.70;99.90;;;;;;5111289;27;20209;-70
2022/07/01 02:23:18;;;;;;;0.00;0.00;;;22.50;99.90;;;;;;5083128;28;20236;-70
2022/07/01 02:25:46;;;;;;;0.00;0.00;;;22.30;99.90;;;;;;5075949;28;20559;-71
2022/07/01 02:28:13;;;;;;;0.00;0.00;;;22.30;99.90;;;;;;5077095;28;20206;-70
2022/07/01 02:30:42;;;;;;;0.00;0.00;;;22.20;99.90;;;;;;5077988;28;20302;-70
2022/07/01 02:33:09;;;;;;;0.00;0.00;;;22.10;99.90;;;;;;5067641;28;20225;-71
2022/07/01 02:35:37;;;;;;;0.00;0.00;;;22.00;99.90;;;;;;5076039;28;20194;-70
2022/07/01 02:38:05;;;;;;;0.00;0.00;;;22.00;99.90;;;;;;5077745;28;20811;-69
2022/07/01 02:40:33;;;;;;;0.00;0.00;;;21.90;99.90;;;;;;5076432;28;20194;-69
2022/07/01 02:43:01;;;;;;;0.00;0.00;;;21.80;99.90;;;;;;5073249;28;20249;-71
2022/07/01 02:45:28;;;;;;;0.00;0.00;;;21.70;99.90;;;;;;5080964;28;20308;-71
2022/07/01 02:47:56;;;;;;;0.00;0.00;;;21.70;99.90;;;;;;5084231;28;20189;-71
2022/07/01 02:50:24;;;;;;;0.00;0.00;;;21.60;99.90;;;;;;5081119;28;20290;-70
2022/07/01 02:52:52;;;;;;;0.00;0.00;;;21.50;99.90;;;;;;5095858;28;20224;-70
2022/07/01 02:55:19;;;;;;;0.00;0.00;;;21.40;99.90;;;;;;5081834;28;20468;-70
2022/07/01 02:57:46;;;;;;;0.00;0.00;;;21.20;99.90;;;;;;5080046;28;20222;-72
2022/07/01 03:00:14;;;;;;;0.00;0.00;;;21.10;99.90;;;;;;5081320;28;20761;-72
2022/07/01 03:02:41;;;;;;;0.00;0.00;;;21.10;99.90;;;;;;5081400;28;20214;-71
2022/07/01 03:05:11;;;;;;;0.00;0.00;;;21.10;99.90;;;;;;5080000;28;20210;-72
2022/07/01 03:07:37;;;;;;;0.00;0.00;;;21.10;99.90;;;;;;5095813;28;20191;-72
2022/07/01 03:10:06;;;;;;;0.00;0.00;;;21.10;99.90;;;;;;5080096;28;20221;-72
2022/07/01 03:12:35;;;;;;;0.00;0.00;;;21.00;99.90;;;;;;5078466;28;20198;-72
2022/07/01 03:15:05;;;;;;;0.00;0.00;;;21.00;99.90;;;;;;5079476;28;20186;-72
2022/07/01 03:17:33;;;;;;;0.00;0.00;;;21.00;99.90;;;;;;5079579;28;20263;-71
2022/07/01 03:20:01;;;;;;;0.00;0.00;;;21.00;99.90;;;;;;5080613;28;20205;-72
2022/07/01 03:22:31;;;;;;;0.00;0.00;;;21.00;99.90;;;;;;5073174;28;20269;-71
2022/07/01 03:24:58;;;;;;;0.00;0.00;;;21.00;99.90;;;;;;5081773;28;20259;-72
2022/07/01 03:27:27;;;;;;;0.00;0.00;;;21.00;99.90;;;;;;5079051;28;20209;-72
2022/07/01 03:29:54;;;;;;;0.00;0.00;;;20.90;99.90;;;;;;5080079;28;20224;-72
2022/07/01 03:32:21;;;;;;;0.00;0.00;;;20.90;99.90;;;;;;5095928;28;20206;-72
2022/07/01 03:34:51;;;;;;;0.00;0.00;;;20.90;99.90;;;;;;5079554;28;20232;-72
2022/07/01 03:37:19;;;;;;;0.00;0.00;;;21.00;99.90;;;;;;5079707;28;20206;-72
2022/07/01 03:39:48;;;;;;;0.00;0.00;;;20.90;99.90;;;;;;5079506;28;20194;-72
2022/07/01 03:42:16;;;;;;;0.00;0.00;;;20.90;99.90;;;;;;5079248;28;20201;-71
2022/07/01 03:44:44;;;;;;;0.00;0.00;;;20.90;99.90;;;;;;5080381;28;20213;-71
2022/07/01 03:47:10;;;;;;;0.00;0.00;;;20.90;99.90;;;;;;5079000;28;20198;-71
2022/07/01 03:49:38;;;;;;;0.00;0.00;;;20.90;99.90;;;;;;5079582;28;20328;-70
2022/07/01 03:52:06;;;;;;;0.00;0.00;;;20.90;99.90;;;;;;5078517;28;20198;-71
2022/07/01 03:54:33;;;;;;;0.00;0.00;;;20.90;99.90;;;;;;5079306;28;20217;-73
2022/07/01 03:57:03;;;;;;;0.00;0.00;;;20.90;99.90;;;;;;5078940;28;20213;-71
2022/07/01 03:59:33;;;;;;;0.00;0.00;;;20.90;99.90;;;;;;5086994;28;20202;-72
2022/07/01 04:02:00;;;;;;;0.00;0.00;;;20.90;99.90;;;;;;5113379;27;20210;-73
2022/07/01 04:04:28;;;;;;;0.00;0.00;;;20.90;99.90;;;;;;5078702;28;20249;-72
2022/07/01 04:06:58;;;;;;;0.00;0.00;;;20.90;99.90;;;;;;5080796;28;20212;-71
2022/07/01 04:09:26;;;;;;;0.00;0.00;;;20.80;99.90;;;;;;5078928;28;20225;-72
2022/07/01 04:11:53;;;;;;;0.00;0.00;;;20.80;99.90;;;;;;5079349;28;20206;-73
2022/07/01 04:14:22;;;;;;;0.00;0.00;;;;;;;;;;5078762;28;20221;-73
2022/07/01 04:16:49;;;;;;;0.00;0.00;;;20.50;99.90;;;;;;5079906;28;20204;-73
2022/07/01 04:19:16;;;;;;;0.00;0.00;;;20.60;99.90;;;;;;5077972;28;20208;-71
2022/07/01 04:24:28;;;;;;;0.00;0.00;;;20.40;99.90;;;;;;5077134;28;20218;-74
2022/07/01 04:26:56;;;;;;;0.00;0.00;;;20.40;99.90;;;;;;5078057;28;20198;-72
2022/07/01 04:29:24;;;;;;;0.00;0.00;;;20.30;99.90;;;;;;5078059;28;20234;-74
2022/07/01 04:31:51;;;;;;;0.00;0.00;;;20.20;99.90;;;;;;5078200;28;20239;-72
2022/07/01 04:34:18;;;;;;;0.00;0.00;;;20.10;99.90;;;;;;5077109;28;20302;-73
2022/07/01 04:36:45;;;;;;;0.00;0.00;;;20.00;99.90;;;;;;5078551;28;20213;-74
2022/07/01 04:39:12;;;;;;;0.00;0.00;;;20.00;99.90;;;;;;5080067;28;20190;-72
2022/07/01 04:44:26;;;;;;;0.00;0.00;;;19.80;99.90;;;;;;5078197;28;20217;-73
2022/07/01 04:46:53;;;;;;;0.00;0.00;;;19.80;99.90;;;;;;5078727;28;20320;-72
2022/07/01 04:49:20;;;;;;;0.00;0.00;;;19.70;99.90;;;;;;5113881;27;20229;-72
2022/07/01 04:51:47;;;;;;;0.00;0.00;;;19.60;99.90;;;;;;5076298;28;20210;-71
2022/07/01 04:54:14;;;;;;;0.00;0.00;;;19.60;99.90;;;;;;5077257;28;20218;-72
2022/07/01 04:56:41;;;;;;;0.00;0.00;;;19.60;99.90;;;;;;5079147;28;20279;-73
2022/07/01 04:59:08;;;;;;;0.00;0.00;;;19.50;99.90;;;;;;5078829;28;20234;-74
2022/07/01 05:01:36;;;;;;;0.00;0.00;;;19.50;99.90;;;;;;5110054;27;20264;-73
2022/07/01 05:04:03;;;;;;;0.00;0.00;;;19.50;99.90;;;;;;5084096;28;20225;-72
2022/07/01 05:06:30;;;;;;;0.00;0.00;;;19.50;99.90;;;;;;5076460;28;20201;-72
2022/07/01 05:08:57;;;;;;;0.00;0.00;;;19.40;99.90;;;;;;5077590;28;20198;-72
2022/07/01 05:11:24;;;;;;;0.00;0.00;;;19.40;99.90;;;;;;5076537;28;20217;-72
2022/07/01 05:13:51;;;;;;;0.00;0.00;;;19.30;99.90;;;;;;5094453;27;20303;-72
2022/07/01 05:16:18;;;;;;;0.00;0.00;;;19.30;99.90;;;;;;5111910;27;20224;-71
2022/07/01 05:24:16;;;;;;;0.00;0.00;;;19.10;99.90;;;;;;5095650;28;20230;-71
2022/07/01 05:26:43;;;;;;;0.00;0.00;;;19.00;99.90;;;;;;5067016;28;20194;-71
2022/07/01 05:29:10;;;;;;;0.00;0.00;;;18.90;99.90;;;;;;5079526;28;20227;-71
2022/07/01 05:31:37;;;;;;;0.00;0.00;;;18.90;99.90;;;;;;5079712;28;20198;-71
2022/07/01 05:34:06;;;;;;;0.00;0.00;;;18.90;99.90;;;;;;5079434;28;20611;-71
2022/07/01 05:36:34;;;;;;;0.00;0.00;;;18.90;99.90;;;;;;5074477;28;20202;-72
2022/07/01 05:39:01;;;;;;;0.00;0.00;;;18.80;99.90;;;;;;5079057;28;20202;-71
2022/07/01 05:41:28;;;;;;;0.00;0.00;;;18.70;99.90;;;;;;5078008;28;20190;-72
2022/07/01 05:43:55;;;;;;;0.00;0.00;;;18.70;99.90;;;;;;5077875;28;20217;-72
2022/07/01 05:46:22;;;;;;;0.00;0.00;;;18.70;99.90;;;;;;5077911;28;20205;-72
2022/07/01 05:48:48;;;;;;;0.00;0.00;;;18.70;99.90;;;;;;5076952;28;20222;-72
2022/07/01 05:51:17;;;;;;;0.00;0.00;;;18.70;99.90;;;;;;5076523;28;20244;-73
2022/07/01 05:53:47;;;;;;;0.00;0.00;;;18.70;99.90;;;;;;5067645;28;20222;-72
2022/07/01 05:56:14;;;;;;;0.00;0.00;;;18.70;99.90;;;;;;5077622;28;20596;-71
2022/07/01 05:58:41;;;;;;;0.00;0.00;;;18.70;99.90;;;;;;5078755;28;20290;-71
2022/07/01 06:01:07;;;;;;;0.00;0.00;;;18.70;99.90;;;;;;5078129;28;20258;-71
2022/07/01 06:03:34;;;;;;;0.00;0.00;;;18.70;99.90;;;;;;5078201;28;20210;-71
2022/07/01 06:06:01;;;;;;;0.00;0.00;;;18.70;99.90;;;;;;5078472;28;20288;-71
2022/07/01 06:08:30;;;;;;;0.00;0.00;;;18.60;99.90;;;;;;5078479;28;20204;-71
2022/07/01 06:10:57;;;;;;;0.00;0.00;;;18.60;99.90;;;;;;5078305;28;20237;-70
2022/07/01 06:13:24;;;;;;;0.00;0.00;;;18.70;99.90;;;;;;5086889;28;20228;-71
2022/07/01 06:15:51;;;;;;;0.00;0.00;;;18.70;99.90;;;;;;5077592;28;20194;-71
2022/07/01 06:18:18;;;;;;;0.00;0.00;;;18.80;99.90;;;;;;5080131;28;20251;-71
2022/07/01 06:20:45;;;;;;;0.00;0.00;;;18.80;99.90;;;;;;5097043;28;20189;-70
2022/07/01 06:23:12;;;;;;;0.00;0.00;;;18.80;99.90;;;;;;5080171;28;20235;-71
2022/07/01 06:25:40;;;;;;;0.00;0.00;;;18.80;99.90;;;;;;5072154;28;20251;-72
2022/07/01 06:28:07;;;;;;;0.00;0.00;;;18.90;99.90;;;;;;5081443;28;20626;-71
2022/07/01 06:30:34;;;;;;;0.00;0.00;;;18.80;99.90;;;;;;5080451;28;20214;-73
2022/07/01 06:33:01;;;;;;;0.00;0.00;;;18.80;99.90;;;;;;5079771;28;20233;-72
2022/07/01 06:35:28;;;;;;;0.00;0.00;;;18.80;99.90;;;;;;5081653;28;20216;-72
2022/07/01 06:37:55;;;;;;;0.00;0.00;;;18.80;99.90;;;;;;5082442;28;20198;-72
2022/07/01 06:40:22;;;;;;;0.00;0.00;;;18.80;99.90;;;;;;5081239;28;20209;-71
2022/07/01 06:42:51;;;;;;;0.00;0.00;;;18.80;99.90;;;;;;5082779;28;20324;-72
2022/07/01 06:45:17;;;;;;;0.00;0.00;;;18.80;99.90;;;;;;5081499;28;20209;-71
2022/07/01 06:47:45;;;;;;;0.00;0.00;;;18.80;99.90;;;;;;5081023;28;20194;-72
2022/07/01 06:50:12;;;;;;;0.00;0.00;;;18.70;99.90;;;;;;5070101;28;20229;-72
2022/07/01 06:52:38;;;;;;;0.00;0.00;;;18.70;99.90;;;;;;5081055;28;20198;-72
2022/07/01 06:55:06;;;;;;;0.00;0.00;;;18.60;99.90;;;;;;5080046;28;20259;-72
2022/07/01 06:57:33;;;;;;;0.00;0.00;;;18.60;99.90;;;;;;5080104;28;20267;-72
2022/07/01 07:00:03;;;;;;;0.00;0.00;;;18.50;99.90;;;;;;5079728;28;20202;-72
2022/07/01 07:02:29;;;;;;;0.00;0.00;;;18.50;99.90;;;;;;5083199;28;20198;-70
2022/07/01 07:04:58;;;;;;;0.00;0.00;;;18.50;99.90;;;;;;5081238;28;20224;-70
2022/07/01 07:07:25;;;;;;;0.00;0.00;;;18.40;99.90;;;;;;5080551;28;20204;-70
2022/07/01 07:09:52;;;;;;;0.00;0.00;;;18.40;99.90;;;;;;5080573;28;20269;-73
2022/07/01 07:12:19;;;;;;;0.00;0.00;;;18.40;99.90;;;;;;5079213;28;20190;-72
2022/07/01 07:14:46;;;;;;;0.00;0.00;;;18.30;99.90;;;;;;5074105;28;20263;-72
2022/07/01 07:17:14;;;;;;;0.00;0.00;;;18.30;99.90;;;;;;5079577;28;20206;-70
2022/07/01 07:19:41;;;;;;;0.00;0.00;;;18.20;99.90;;;;;;5080039;28;20292;-70
2022/07/01 07:22:08;;;;;;;0.00;0.00;;;18.20;99.90;;;;;;5097866;27;20205;-72
2022/07/01 07:24:36;;;;;;;0.00;0.00;;;18.20;99.90;;;;;;5079537;28;20224;-71
2022/07/01 07:27:04;;;;;;;0.00;0.00;;;18.20;99.90;;;;;;5075157;28;20220;-72
2022/07/01 07:29:31;;;;;;;0.00;0.00;;;18.20;99.90;;;;;;5079671;28;20907;-70
2022/07/01 07:31:58;;;;;;;0.00;0.00;;;18.20;99.90;;;;;;5078155;28;20225;-71
2022/07/01 07:34:26;;;;;;;0.00;0.00;;;18.20;99.90;;;;;;5079699;28;20222;-72
2022/07/01 07:36:53;;;;;;;0.00;0.00;;;18.30;99.90;;;;;;5079761;28;20204;-70
2022/07/01 07:39:20;;;;;;;0.00;0.00;;;18.20;99.90;;;;;;5078509;28;20217;-70
2022/07/01 07:41:47;;;;;;;0.00;0.00;;;18.20;99.90;;;;;;5080057;28;20193;-73
2022/07/01 07:44:14;;;;;;;0.00;0.00;;;18.20;99.90;;;;;;5077821;28;20312;-77
2022/07/01 07:46:41;;;;;;;0.00;0.00;;;18.10;99.90;;;;;;5075638;28;20225;-71
2022/07/01 07:49:08;;;;;;;0.00;0.00;;;18.10;99.90;;;;;;5078485;28;20208;-72
2022/07/01 07:51:37;;;;;;;0.00;0.00;;;18.00;99.90;;;;;;5079215;28;20617;-70
2022/07/01 07:54:04;;;;;;;0.00;0.00;;;18.10;99.90;;;;;;5079372;28;20210;-73
2022/07/01 07:56:32;;;;;;;0.00;0.00;;;18.00;99.90;;;;;;5076990;28;20198;-72
2022/07/01 07:58:59;;;;;;;0.00;0.00;;;18.20;99.90;;;;;;5078349;28;20273;-73
2022/07/01 08:01:26;;;;;;;0.00;0.00;;;17.90;99.90;;;;;;5078188;28;20253;-71
2022/07/01 08:03:53;;;;;;;0.00;0.00;;;17.90;99.90;;;;;;5078145;28;20304;-71
2022/07/01 08:06:20;;;;;;;0.00;0.00;;;17.90;99.90;;;;;;5078243;28;20226;-70
2022/07/01 08:08:48;;;;;;;0.00;0.00;;;17.90;99.90;;;;;;5079338;28;20260;-73
2022/07/01 08:11:15;;;;;;;0.00;0.00;;;17.90;99.90;;;;;;5109911;27;20221;-70
2022/07/01 08:13:43;;;;;;;0.00;0.00;;;17.80;99.90;;;;;;5077698;28;20218;-71
2022/07/01 08:16:10;;;;;;;0.00;0.00;;;17.80;99.90;;;;;;5078121;28;20667;-72
2022/07/01 08:18:37;;;;;;;0.00;0.00;;;17.80;99.90;;;;;;5095442;28;20229;-72
2022/07/01 08:21:05;;;;;;;0.00;0.00;;;17.80;99.90;;;;;;5077834;28;20206;-71
2022/07/01 08:23:32;;;;;;;0.03;0.03;;;;;;;;;;5078430;28;20222;-73
2022/07/01 08:26:01;;;;;;;0.00;0.00;;;17.90;99.90;;;;;;5077525;28;20202;-72
2022/07/01 08:28:28;;;;;;;0.00;0.00;;;17.90;99.90;;;;;;5065823;28;20199;-73
2022/07/01 08:30:55;;;;;;;0.00;0.00;;;;;;;;;;5111142;27;20225;-71
2022/07/01 08:33:22;;;;;;;0.00;0.00;;;;;;;;;;5077084;28;20320;-71
2022/07/01 08:35:50;;;;;;;0.00;0.00;;;;;;;;;;5077657;28;21023;-73
2022/07/01 08:38:18;;;;;;;0.00;0.00;;;;;;;;;;5078342;28;20191;-75
2022/07/01 08:40:45;;;;;;;0.10;0.10;;;;;;;;;;5077704;28;20216;-74
2022/07/01 08:43:14;;;;;;;0.00;0.00;;;;;;;;;;5077128;28;20238;-74
2022/07/01 08:45:42;;;;;;;0.00;0.00;;;;;;;;;;5077347;28;20206;-72
2022/07/01 08:48:09;;;;;;;0.00;0.00;;;17.80;99.90;;;;;;5077396;28;20198;-73
2022/07/01 08:50:38;;;;;;;0.00;0.00;;;17.80;99.90;;;;;;5076745;28;20309;-75
2022/07/01 08:53:05;;;;;;;0.00;0.00;;;17.70;99.90;;;;;;5076813;28;20295;-70
2022/07/01 08:56:40;;;;;;;0.00;0.00;;;17.70;99.90;;;;;;5075898;28;20205;-73
2022/07/01 08:58:21;;;;;;;0.00;0.00;;;17.70;99.90;;;;;;5077069;28;20198;-74
2022/07/01 09:00:48;;;;;;;0.00;0.00;;;17.70;99.90;;;;;;5078283;28;20289;-70
2022/07/01 09:03:15;;;;;;;0.00;0.00;;;17.70;99.90;;;;;;5077841;28;20221;-74
2022/07/01 09:05:51;;;;;;;0.00;0.00;;;17.60;99.90;;;;;;5077409;28;20214;-72
2022/07/01 09:08:19;;;;;;;0.00;0.00;;;17.60;99.90;;;;;;5078525;28;20212;-72
2022/07/01 09:10:47;;;;;;;0.00;0.00;;;17.60;99.90;;;;;;5077908;28;20218;-70
2022/07/01 09:13:14;;;;;;;0.00;0.00;;;17.60;99.90;;;;;;5111388;27;20278;-73
2022/07/01 09:15:43;;;;;;;0.00;0.00;;;17.60;99.90;;;;;;5077589;28;20237;-71
2022/07/01 09:18:12;;;;;;;0.00;0.00;;;17.70;99.90;;;;;;5078763;28;20197;-73
2022/07/01 09:20:41;;;;;;;0.00;0.00;;;17.70;99.90;;;;;;5095060;27;20232;-74
2022/07/01 09:23:11;;;;;;;0.00;0.00;;;17.70;99.90;;;;;;5078025;28;20222;-80
2022/07/01 09:25:43;;;;;;;0.00;0.00;;;17.70;99.90;;;;;;5064368;28;20190;-74
2022/07/01 09:28:12;;;;;;;0.00;0.00;;;17.80;99.90;;;;;;5076994;28;20202;-71
2022/07/01 09:30:40;;;;;;;0.00;0.00;;;17.80;99.90;;;;;;5093975;28;20205;-74
2022/07/01 09:33:14;;;;;;;0.00;0.00;;;17.70;99.90;;;;;;5076962;28;20230;-70
2022/07/01 09:35:42;;;;;;;0.00;0.00;;;17.70;99.90;;;;;;5077297;28;20281;-75
2022/07/01 09:38:12;;;;;;;0.00;0.00;;;17.70;99.90;;;;;;5077335;28;20197;-69
2022/07/01 09:40:53;;;;;;;0.00;0.00;;;17.60;99.90;;;;;;5078010;28;20248;-69
2022/07/01 09:43:22;;;;;;;0.00;0.00;;;17.60;99.90;;;;;;5078532;28;20253;-73
2022/07/01 09:45:55;;;;;;;0.00;0.00;;;17.50;99.90;;;;;;5076938;28;20558;-71
2022/07/01 09:48:24;;;;;;;0.00;0.00;;;;;;;;;;5084016;28;20219;-72
2022/07/01 09:50:52;;;;;;;0.00;0.00;;;17.60;99.90;;;;;;5076988;28;20342;-73
2022/07/01 09:53:19;;;;;;;0.00;0.00;;;17.50;99.90;;;;;;5086196;28;20224;-70
2022/07/01 09:55:46;;;;;;;0.00;0.00;;;17.50;99.90;;;;;;5077719;28;20230;-73
2022/07/01 09:58:13;;;;;;;0.00;0.00;;;17.50;99.90;;;;;;5077434;28;20197;-71
2022/07/01 10:00:40;;;;;;;0.00;0.00;;;17.60;99.90;;;;;;5078454;28;20198;-74
2022/07/01 10:03:07;;;;;;;0.00;0.00;;;17.60;99.90;;;;;;5076935;28;20219;-73
2022/07/01 10:05:42;;;;;;;0.00;0.00;;;17.60;99.90;;;;;;5078307;28;20202;-74
2022/07/01 10:08:22;;;;;;;0.00;0.00;;;17.60;99.90;;;;;;5111138;27;20232;-71
2022/07/01 10:10:57;;;;;;;0.00;0.00;;;17.70;99.90;;;;;;5078927;28;20206;-72
2022/07/01 10:13:27;;;;;;;0.00;0.00;;;17.70;99.90;;;;;;5079694;28;20217;-74
2022/07/01 10:15:56;;;;;;;0.00;0.00;;;17.70;99.90;;;;;;5079456;28;20288;-71
2022/07/01 10:18:25;;;;;;;0.00;0.00;;;17.70;99.90;;;;;;5077338;28;20193;-70
2022/07/01 10:20:55;;;;;;;0.00;0.00;;;17.60;99.90;;;;;;5078135;28;20209;-74
2022/07/01 10:23:26;;;;;;;0.00;0.00;;;17.60;99.90;;;;;;5085289;28;20229;-71
2022/07/01 10:25:54;;;;;;;0.00;0.00;;;17.60;99.90;;;;;;5077461;28;20230;-72
2022/07/01 10:28:27;;;;;;;0.00;0.00;;;17.70;99.90;;;;;;5079553;28;20204;-70
2022/07/01 10:31:01;;;;;;;0.00;0.00;;;17.70;99.90;;;;;;5077299;28;20206;-71
2022/07/01 10:33:34;;;;;;;0.00;0.00;;;17.70;99.90;;;;;;5077153;28;20229;-73
2022/07/01 10:36:31;;;;;;;0.00;0.00;;;17.80;99.90;;;;;;5076979;28;20545;-72
2022/07/01 10:39:13;;;;;;;0.00;0.00;;;17.80;99.90;;;;;;5092600;27;20667;-72
2022/07/01 10:41:42;;;;;;;0.00;0.00;;;17.80;99.90;;;;;;5110709;27;20226;-72
2022/07/01 10:44:11;;;;;;;0.00;0.00;;;17.90;99.90;;;;;;5078372;28;20700;-71
2022/07/01 10:46:43;;;;;;;0.00;0.00;;;17.90;99.90;;;;;;5079203;28;20295;-72
2022/07/01 10:49:12;;;;;;;0.00;0.00;;;17.90;99.90;;;;;;5077948;28;20264;-71
2022/07/01 10:51:51;;;;;;;0.00;0.00;;;17.80;99.90;;;;;;5076723;28;20210;-72
2022/07/01 10:54:47;;;;;;;0.00;0.00;;;17.80;99.90;;;;;;5092992;28;20230;-71
2022/07/01 10:57:30;;;;;;;0.00;0.00;;;17.70;99.90;;;;;;5078740;28;20289;-71
2022/07/01 11:00:18;;;;;;;0.00;0.00;;;17.60;99.90;;;;;;5076530;28;20290;-70
2022/07/01 11:02:45;;;;;;;0.00;0.00;;;;;;;;;;5078805;28;20217;-72
2022/07/01 11:05:13;;;;;;;0.00;0.00;;;;;;;;;;5081644;28;20200;-74
2022/07/01 11:07:44;;;;;;;0.00;0.00;;;;;;;;;;5080044;28;20290;-73
2022/07/01 11:10:12;;;;;;;0.00;0.00;;;;;;;;;;5079677;28;20245;-71
2022/07/01 11:12:39;;;;;;;0.00;0.00;;;;;;;;;;5087799;28;20214;-73
2022/07/01 11:15:07;;;;;;;0.00;0.00;;;;;;;;;;5080002;28;20204;-71
2022/07/01 11:17:35;;;;;;;0.00;0.00;;;;;;;;;;5079797;28;20198;-75
2022/07/01 11:20:03;;;;;;;0.00;0.00;;;;;;;;;;5080428;28;20214;-75
2022/07/01 11:22:31;;;;;;;0.00;0.00;;;;;;;;;;5078944;28;20195;-74
2022/07/01 11:25:00;;;;;;;0.00;0.00;;;;;;;;;;5080384;28;20202;-73
2022/07/01 11:27:28;;;;;;;0.00;0.00;;;;;;;;;;5080363;28;20671;-74
2022/07/01 11:29:55;;;;;;;0.00;0.00;;;;;;;;;;5080833;28;20224;-73
2022/07/01 11:32:26;;;;;;;0.00;0.00;;;;;;;;;;5079470;28;20221;-73
2022/07/01 11:34:54;;;;;;;0.00;0.00;;;;;;;;;;5079983;28;20233;-70
2022/07/01 11:40:09;;;;;;;0.00;0.00;;;;;;;;;;5071611;28;20193;-71
2022/07/01 11:42:37;;;;;;;0.00;0.00;;;;;;;;;;5081696;28;20194;-73
2022/07/01 11:45:05;;;;;;;0.00;0.00;;;;;;;;;;5079495;28;20198;-73
2022/07/01 11:47:32;;;;;;;0.00;0.00;;;;;;;;;;5079178;28;20232;-72
2022/07/01 11:50:00;;;;;;;0.00;0.00;;;;;;;;;;5079134;28;20198;-71
2022/07/01 11:52:28;;;;;;;0.00;0.00;;;;;;;;;;5080241;28;20291;-71
2022/07/01 11:54:57;;;;;;;0.00;0.00;;;;;;;;;;5078863;28;20267;-72
2022/07/01 11:57:26;;;;;;;0.00;0.00;;;;;;;;;;5079182;28;20206;-70
2022/07/01 11:59:55;;;;;;;0.00;0.00;;;;;;;;;;5078873;28;20194;-72
2022/07/01 12:02:23;;;;;;;0.00;0.00;;;;;;;;;;5111851;27;20198;-72
2022/07/01 12:04:51;;;;;;;0.00;0.00;;;;;;;;;;5074468;28;20212;-70
2022/07/01 12:07:21;;;;;;;0.00;0.00;;;;;;;;;;5077376;28;20212;-71
2022/07/01 12:09:48;;;;;;;0.00;0.00;;;;;;;;;;5094261;27;20208;-71
2022/07/01 12:12:19;;;;;;;0.00;0.00;;;;;;;;;;5065985;28;20226;-71
2022/07/01 12:14:55;;;;;;;0.00;0.00;;;;;;;;;;5078422;28;20190;-70
2022/07/01 12:17:22;;;;;;;0.00;0.00;;;;;;;;;;5078178;28;20205;-69
2022/07/01 12:19:50;;;;;;;0.00;0.00;;;;;;;;;;5077809;28;20196;-72
2022/07/01 12:22:19;;;;;;;0.00;0.00;;;;;;;;;;5076686;28;20194;-70
2022/07/01 12:24:46;;;;;;;0.00;0.00;;;;;;;;;;5077337;28;20320;-71
2022/07/01 12:27:14;;;;;;;0.00;0.00;;;;;;;;;;5078518;28;20205;-71
2022/07/01 12:29:51;;;;;;;0.00;0.00;;;;;;;;;;5081057;28;20250;-72
2022/07/01 12:32:22;;;;;;;0.00;0.00;;;;;;;;;;5081733;28;20611;-72
2022/07/01 12:34:51;;;;;;;0.00;0.00;;;;;;;;;;5076828;28;20925;-71
2022/07/01 12:37:19;;;;;;;0.00;0.00;;;;;;;;;;5079607;28;20198;-71
2022/07/01 12:39:47;;;;;;;0.00;0.00;;;;;;;;;;5076134;28;20194;-72
2022/07/01 12:42:24;;;;;;;0.00;0.00;;;;;;;;;;5077284;28;20221;-71
2022/07/01 12:44:52;;;;;;;0.00;0.00;;;;;;;;;;5076886;28;20197;-71
2022/07/01 12:47:22;;;;;;;0.00;0.00;;;;;;;;;;5079496;28;20202;-70
2022/07/01 12:49:49;;;;;;;0.00;0.00;;;;;;;;;;5078151;28;20202;-71
2022/07/01 12:52:26;;;;;;;0.00;0.00;;;;;;;;;;5078583;28;20223;-72
2022/07/01 12:54:54;;;;;;;0.00;0.00;;;;;;;;;;5077330;28;20206;-70
2022/07/01 12:57:30;;;;;;;0.00;0.00;;;;;;;;;;5079850;28;20202;-72
2022/07/01 12:59:57;;;;;;;0.00;0.00;;;;;;;;;;5076980;28;20289;-71
2022/07/01 13:02:26;;;;;;;0.00;0.00;;;;;;;;;;5077775;28;20194;-71
2022/07/01 13:04:53;;;;;;;0.00;0.00;;;;;;;;;;5077740;28;20239;-70
2022/07/01 13:07:20;;;;;;;0.00;0.00;;;;;;;;;;5078042;28;20209;-69
2022/07/01 13:09:48;;;;;;;0.00;0.00;;;;;;;;;;5077769;28;20206;-71
2022/07/01 13:12:15;;;;;;;0.00;0.00;;;;;;;;;;5077864;28;20240;-70
2022/07/01 13:14:43;;;;;;;0.00;0.00;;;;;;;;;;5076753;28;20214;-69
2022/07/01 13:17:11;;;;;;;0.00;0.00;;;;;;;;;;5079602;28;20231;-70
2022/07/01 13:19:39;;;;;;;0.00;0.00;;;;;;;;;;5079108;28;20210;-72
2022/07/01 13:22:07;;;;;;;0.00;0.00;;;;;;;;;;5082888;28;20240;-71
2022/07/01 13:24:34;;;;;;;0.00;0.00;;;;;;;;;;5077589;28;20215;-69
2022/07/01 13:27:01;;;;;;;0.00;0.00;;;;;;;;;;5080043;28;20263;-70
2022/07/01 13:29:28;;;;;;;0.00;0.00;;;;;;;;;;5062236;28;20208;-70